sensor_id;sensor_type;location;lat;lon;timestamp;P1;durP1;ratioP1;P2;durP2;ratioP2
52586;SDS011;38480;52.724;6.436;2023-05-29T00:00:10;32.37;;;5.60;;
52586;SDS011;38480;52.724;6.436;2023-05-29T00:02:38;27.40;;;5.43;;
52586;SDS011;38480;52.724;6.436;2023-05-29T00:05:05;27.90;;;5.53;;
52586;SDS011;38480;52.724;6.436;2023-05-29T00:07:31;32.20;;;5.40;;
52586;SDS011;38480;52.724;6.436;2023-05-29T00:10:00;28.73;;;5.47;;
52586;SDS011;38480;52.724;6.436;2023-05-29T00:12:26;23.67;;;5.57;;
52586;SDS011;38480;52.724;6.436;2023-05-29T00:14:52;32.20;;;5.97;;
52586;SDS011;38480;52.724;6.436;2023-05-29T00:17:18;45.90;;;7.13;;
52586;SDS011;38480;52.724;6.436;2023-05-29T00:19:45;29.37;;;5.50;;
52586;SDS011;38480;52.724;6.436;2023-05-29T00:22:11;22.13;;;5.43;;
52586;SDS011;38480;52.724;6.436;2023-05-29T00:24:37;21.13;;;5.47;;
52586;SDS011;38480;52.724;6.436;2023-05-29T00:27:03;31.20;;;5.27;;
52586;SDS011;38480;52.724;6.436;2023-05-29T00:29:29;28.07;;;5.60;;
52586;SDS011;38480;52.724;6.436;2023-05-29T00:31:55;27.97;;;5.53;;
52586;SDS011;38480;52.724;6.436;2023-05-29T00:34:22;30.07;;;6.43;;
52586;SDS011;38480;52.724;6.436;2023-05-29T00:36:48;28.43;;;5.20;;
52586;SDS011;38480;52.724;6.436;2023-05-29T00:39:14;33.47;;;6.40;;
52586;SDS011;38480;52.724;6.436;2023-05-29T00:41:40;27.47;;;5.97;;
52586;SDS011;38480;52.724;6.436;2023-05-29T00:44:06;30.50;;;5.43;;
52586;SDS011;38480;52.724;6.436;2023-05-29T00:46:32;29.50;;;5.70;;
52586;SDS011;38480;52.724;6.436;2023-05-29T00:48:59;25.83;;;6.00;;
52586;SDS011;38480;52.724;6.436;2023-05-29T00:51:26;36.37;;;5.47;;
52586;SDS011;38480;52.724;6.436;2023-05-29T00:53:53;27.33;;;6.13;;
52586;SDS011;38480;52.724;6.436;2023-05-29T00:56:20;27.63;;;6.20;;
52586;SDS011;38480;52.724;6.436;2023-05-29T00:58:46;32.87;;;5.50;;
52586;SDS011;38480;52.724;6.436;2023-05-29T01:01:13;30.70;;;5.47;;
52586;SDS011;38480;52.724;6.436;2023-05-29T01:03:40;24.80;;;5.37;;
52586;SDS011;38480;52.724;6.436;2023-05-29T01:06:06;29.67;;;5.40;;
52586;SDS011;38480;52.724;6.436;2023-05-29T01:08:32;27.23;;;4.97;;
52586;SDS011;38480;52.724;6.436;2023-05-29T01:11:10;36.00;;;6.97;;
52586;SDS011;38480;52.724;6.436;2023-05-29T01:13:38;30.83;;;6.53;;
52586;SDS011;38480;52.724;6.436;2023-05-29T01:16:09;32.90;;;5.97;;
52586;SDS011;38480;52.724;6.436;2023-05-29T01:18:44;29.53;;;6.00;;
52586;SDS011;38480;52.724;6.436;2023-05-29T01:28:51;26.77;;;7.80;;
52586;SDS011;38480;52.724;6.436;2023-05-29T01:31:19;33.23;;;5.97;;
52586;SDS011;38480;52.724;6.436;2023-05-29T01:33:55;30.77;;;6.70;;
52586;SDS011;38480;52.724;6.436;2023-05-29T01:36:23;31.50;;;6.70;;
52586;SDS011;38480;52.724;6.436;2023-05-29T01:38:50;29.27;;;6.97;;
52586;SDS011;38480;52.724;6.436;2023-05-29T01:41:17;31.57;;;6.10;;
52586;SDS011;38480;52.724;6.436;2023-05-29T01:43:44;28.77;;;5.97;;
52586;SDS011;38480;52.724;6.436;2023-05-29T01:46:11;29.70;;;5.47;;
52586;SDS011;38480;52.724;6.436;2023-05-29T01:48:38;25.07;;;6.00;;
52586;SDS011;38480;52.724;6.436;2023-05-29T01:51:04;34.53;;;6.23;;
52586;SDS011;38480;52.724;6.436;2023-05-29T01:53:30;27.27;;;4.47;;
52586;SDS011;38480;52.724;6.436;2023-05-29T01:55:56;22.73;;;5.57;;
52586;SDS011;38480;52.724;6.436;2023-05-29T01:58:22;29.90;;;6.47;;
52586;SDS011;38480;52.724;6.436;2023-05-29T02:00:49;21.97;;;4.53;;
52586;SDS011;38480;52.724;6.436;2023-05-29T02:03:15;30.17;;;5.90;;
52586;SDS011;38480;52.724;6.436;2023-05-29T02:05:41;26.67;;;5.70;;
52586;SDS011;38480;52.724;6.436;2023-05-29T02:08:07;26.00;;;5.47;;
52586;SDS011;38480;52.724;6.436;2023-05-29T02:10:33;28.10;;;6.47;;
52586;SDS011;38480;52.724;6.436;2023-05-29T02:12:59;32.60;;;6.20;;
52586;SDS011;38480;52.724;6.436;2023-05-29T02:15:25;30.67;;;5.17;;
52586;SDS011;38480;52.724;6.436;2023-05-29T02:17:51;30.00;;;4.80;;
52586;SDS011;38480;52.724;6.436;2023-05-29T02:20:17;25.53;;;6.30;;
52586;SDS011;38480;52.724;6.436;2023-05-29T02:22:43;30.60;;;6.23;;
52586;SDS011;38480;52.724;6.436;2023-05-29T02:25:10;21.37;;;4.77;;
52586;SDS011;38480;52.724;6.436;2023-05-29T02:27:36;27.03;;;5.57;;
52586;SDS011;38480;52.724;6.436;2023-05-29T02:30:02;29.13;;;5.67;;
52586;SDS011;38480;52.724;6.436;2023-05-29T02:32:30;21.93;;;5.17;;
52586;SDS011;38480;52.724;6.436;2023-05-29T02:34:57;22.87;;;4.50;;
52586;SDS011;38480;52.724;6.436;2023-05-29T02:37:23;26.83;;;6.57;;
52586;SDS011;38480;52.724;6.436;2023-05-29T02:39:51;26.20;;;5.63;;
52586;SDS011;38480;52.724;6.436;2023-05-29T02:42:17;26.40;;;5.00;;
52586;SDS011;38480;52.724;6.436;2023-05-29T02:44:43;19.03;;;4.83;;
52586;SDS011;38480;52.724;6.436;2023-05-29T02:47:09;33.23;;;7.10;;
52586;SDS011;38480;52.724;6.436;2023-05-29T02:49:35;25.37;;;7.30;;
52586;SDS011;38480;52.724;6.436;2023-05-29T02:52:01;30.13;;;6.77;;
52586;SDS011;38480;52.724;6.436;2023-05-29T02:54:27;27.17;;;5.73;;
52586;SDS011;38480;52.724;6.436;2023-05-29T02:56:53;39.27;;;5.73;;
52586;SDS011;38480;52.724;6.436;2023-05-29T02:59:19;23.77;;;5.77;;
52586;SDS011;38480;52.724;6.436;2023-05-29T03:01:45;25.37;;;6.40;;
52586;SDS011;38480;52.724;6.436;2023-05-29T03:04:13;29.73;;;6.07;;
52586;SDS011;38480;52.724;6.436;2023-05-29T03:06:39;23.70;;;5.47;;
52586;SDS011;38480;52.724;6.436;2023-05-29T03:09:05;30.20;;;6.37;;
52586;SDS011;38480;52.724;6.436;2023-05-29T03:11:31;31.23;;;5.80;;
52586;SDS011;38480;52.724;6.436;2023-05-29T03:13:58;27.90;;;6.37;;
52586;SDS011;38480;52.724;6.436;2023-05-29T03:16:24;27.50;;;5.87;;
52586;SDS011;38480;52.724;6.436;2023-05-29T03:18:50;29.30;;;8.60;;
52586;SDS011;38480;52.724;6.436;2023-05-29T03:21:16;32.27;;;5.27;;
52586;SDS011;38480;52.724;6.436;2023-05-29T03:23:42;26.90;;;6.43;;
52586;SDS011;38480;52.724;6.436;2023-05-29T03:26:08;27.30;;;7.27;;
52586;SDS011;38480;52.724;6.436;2023-05-29T03:28:37;33.43;;;6.10;;
52586;SDS011;38480;52.724;6.436;2023-05-29T03:31:03;26.00;;;6.03;;
52586;SDS011;38480;52.724;6.436;2023-05-29T03:33:29;27.13;;;5.90;;
52586;SDS011;38480;52.724;6.436;2023-05-29T03:35:55;27.93;;;6.43;;
52586;SDS011;38480;52.724;6.436;2023-05-29T03:38:23;39.03;;;8.70;;
52586;SDS011;38480;52.724;6.436;2023-05-29T03:40:49;21.23;;;5.80;;
52586;SDS011;38480;52.724;6.436;2023-05-29T03:43:15;28.63;;;7.03;;
52586;SDS011;38480;52.724;6.436;2023-05-29T03:45:41;34.33;;;8.50;;
52586;SDS011;38480;52.724;6.436;2023-05-29T03:48:07;27.17;;;8.67;;
52586;SDS011;38480;52.724;6.436;2023-05-29T03:50:33;30.37;;;7.30;;
52586;SDS011;38480;52.724;6.436;2023-05-29T03:52:59;35.43;;;6.60;;
52586;SDS011;38480;52.724;6.436;2023-05-29T03:55:26;21.20;;;5.43;;
52586;SDS011;38480;52.724;6.436;2023-05-29T03:57:53;32.40;;;6.03;;
52586;SDS011;38480;52.724;6.436;2023-05-29T04:00:19;36.73;;;5.97;;
52586;SDS011;38480;52.724;6.436;2023-05-29T04:02:45;35.17;;;6.17;;
52586;SDS011;38480;52.724;6.436;2023-05-29T04:05:11;26.03;;;6.57;;
52586;SDS011;38480;52.724;6.436;2023-05-29T04:07:38;33.67;;;6.37;;
52586;SDS011;38480;52.724;6.436;2023-05-29T04:10:04;29.43;;;5.83;;
52586;SDS011;38480;52.724;6.436;2023-05-29T04:12:31;34.10;;;7.07;;
52586;SDS011;38480;52.724;6.436;2023-05-29T04:14:57;30.40;;;7.50;;
52586;SDS011;38480;52.724;6.436;2023-05-29T04:17:23;29.10;;;6.63;;
52586;SDS011;38480;52.724;6.436;2023-05-29T04:19:49;22.00;;;6.50;;
52586;SDS011;38480;52.724;6.436;2023-05-29T04:22:15;30.83;;;6.97;;
52586;SDS011;38480;52.724;6.436;2023-05-29T04:24:41;31.33;;;7.07;;
52586;SDS011;38480;52.724;6.436;2023-05-29T04:27:08;33.30;;;8.20;;
52586;SDS011;38480;52.724;6.436;2023-05-29T04:29:38;27.40;;;6.83;;
52586;SDS011;38480;52.724;6.436;2023-05-29T04:32:05;31.80;;;6.10;;
52586;SDS011;38480;52.724;6.436;2023-05-29T04:34:33;32.40;;;6.77;;
52586;SDS011;38480;52.724;6.436;2023-05-29T04:36:59;29.90;;;6.73;;
52586;SDS011;38480;52.724;6.436;2023-05-29T04:39:25;30.03;;;6.60;;
52586;SDS011;38480;52.724;6.436;2023-05-29T04:41:52;31.93;;;7.23;;
52586;SDS011;38480;52.724;6.436;2023-05-29T04:44:18;31.80;;;6.50;;
52586;SDS011;38480;52.724;6.436;2023-05-29T04:46:44;32.37;;;7.77;;
52586;SDS011;38480;52.724;6.436;2023-05-29T04:49:12;29.70;;;7.00;;
52586;SDS011;38480;52.724;6.436;2023-05-29T04:51:38;30.40;;;6.83;;
52586;SDS011;38480;52.724;6.436;2023-05-29T04:54:07;37.40;;;6.93;;
52586;SDS011;38480;52.724;6.436;2023-05-29T04:56:36;33.80;;;8.40;;
52586;SDS011;38480;52.724;6.436;2023-05-29T04:59:05;25.57;;;7.00;;
52586;SDS011;38480;52.724;6.436;2023-05-29T05:01:34;33.97;;;8.00;;
52586;SDS011;38480;52.724;6.436;2023-05-29T05:04:00;28.87;;;7.47;;
52586;SDS011;38480;52.724;6.436;2023-05-29T05:06:26;13.83;;;4.13;;
52586;SDS011;38480;52.724;6.436;2023-05-29T05:08:52;30.07;;;6.43;;
52586;SDS011;38480;52.724;6.436;2023-05-29T05:11:19;33.53;;;7.67;;
52586;SDS011;38480;52.724;6.436;2023-05-29T05:13:45;27.33;;;8.00;;
52586;SDS011;38480;52.724;6.436;2023-05-29T05:16:12;25.07;;;6.77;;
52586;SDS011;38480;52.724;6.436;2023-05-29T05:18:38;26.93;;;5.47;;
52586;SDS011;38480;52.724;6.436;2023-05-29T05:21:04;32.17;;;5.80;;
52586;SDS011;38480;52.724;6.436;2023-05-29T05:23:31;24.40;;;6.90;;
52586;SDS011;38480;52.724;6.436;2023-05-29T05:25:57;22.73;;;5.13;;
52586;SDS011;38480;52.724;6.436;2023-05-29T05:28:23;24.20;;;5.73;;
52586;SDS011;38480;52.724;6.436;2023-05-29T05:30:49;22.43;;;6.93;;
52586;SDS011;38480;52.724;6.436;2023-05-29T05:33:16;27.70;;;5.67;;
52586;SDS011;38480;52.724;6.436;2023-05-29T05:35:42;25.03;;;6.00;;
52586;SDS011;38480;52.724;6.436;2023-05-29T05:38:08;34.63;;;6.83;;
52586;SDS011;38480;52.724;6.436;2023-05-29T05:40:34;24.03;;;5.53;;
52586;SDS011;38480;52.724;6.436;2023-05-29T05:43:00;21.33;;;5.50;;
52586;SDS011;38480;52.724;6.436;2023-05-29T05:45:26;26.27;;;5.60;;
52586;SDS011;38480;52.724;6.436;2023-05-29T05:47:52;24.60;;;4.83;;
52586;SDS011;38480;52.724;6.436;2023-05-29T05:50:18;18.60;;;4.47;;
52586;SDS011;38480;52.724;6.436;2023-05-29T05:52:45;30.00;;;6.03;;
52586;SDS011;38480;52.724;6.436;2023-05-29T05:55:11;20.17;;;6.07;;
52586;SDS011;38480;52.724;6.436;2023-05-29T05:57:37;25.97;;;5.20;;
52586;SDS011;38480;52.724;6.436;2023-05-29T06:00:03;22.37;;;5.13;;
52586;SDS011;38480;52.724;6.436;2023-05-29T06:02:36;19.85;;;4.47;;
52586;SDS011;38480;52.724;6.436;2023-05-29T06:05:02;25.43;;;4.90;;
52586;SDS011;38480;52.724;6.436;2023-05-29T06:07:32;21.50;;;5.73;;
52586;SDS011;38480;52.724;6.436;2023-05-29T06:09:58;25.97;;;4.90;;
52586;SDS011;38480;52.724;6.436;2023-05-29T06:12:24;21.67;;;4.10;;
52586;SDS011;38480;52.724;6.436;2023-05-29T06:14:50;22.00;;;4.07;;
52586;SDS011;38480;52.724;6.436;2023-05-29T06:17:16;18.97;;;4.10;;
52586;SDS011;38480;52.724;6.436;2023-05-29T06:19:42;22.77;;;4.23;;
52586;SDS011;38480;52.724;6.436;2023-05-29T06:22:08;22.57;;;4.80;;
52586;SDS011;38480;52.724;6.436;2023-05-29T06:24:34;34.83;;;5.43;;
52586;SDS011;38480;52.724;6.436;2023-05-29T06:27:00;19.90;;;3.40;;
52586;SDS011;38480;52.724;6.436;2023-05-29T06:29:26;16.40;;;4.67;;
52586;SDS011;38480;52.724;6.436;2023-05-29T06:31:52;15.93;;;3.77;;
52586;SDS011;38480;52.724;6.436;2023-05-29T06:34:18;20.83;;;5.00;;
52586;SDS011;38480;52.724;6.436;2023-05-29T06:36:44;29.13;;;4.30;;
52586;SDS011;38480;52.724;6.436;2023-05-29T06:39:11;19.07;;;3.90;;
52586;SDS011;38480;52.724;6.436;2023-05-29T06:41:37;17.17;;;3.47;;
52586;SDS011;38480;52.724;6.436;2023-05-29T06:44:03;24.07;;;3.87;;
52586;SDS011;38480;52.724;6.436;2023-05-29T06:46:29;16.77;;;3.83;;
52586;SDS011;38480;52.724;6.436;2023-05-29T06:48:55;19.30;;;5.23;;
52586;SDS011;38480;52.724;6.436;2023-05-29T06:51:21;22.13;;;5.03;;
52586;SDS011;38480;52.724;6.436;2023-05-29T06:53:47;19.33;;;5.30;;
52586;SDS011;38480;52.724;6.436;2023-05-29T06:56:13;18.40;;;3.40;;
52586;SDS011;38480;52.724;6.436;2023-05-29T06:58:39;15.40;;;3.90;;
52586;SDS011;38480;52.724;6.436;2023-05-29T07:01:05;15.53;;;3.30;;
52586;SDS011;38480;52.724;6.436;2023-05-29T07:03:31;16.43;;;4.10;;
52586;SDS011;38480;52.724;6.436;2023-05-29T07:05:58;19.83;;;3.50;;
52586;SDS011;38480;52.724;6.436;2023-05-29T07:08:24;16.23;;;3.80;;
52586;SDS011;38480;52.724;6.436;2023-05-29T07:10:50;21.13;;;4.43;;
52586;SDS011;38480;52.724;6.436;2023-05-29T07:13:16;17.50;;;3.43;;
52586;SDS011;38480;52.724;6.436;2023-05-29T07:15:43;13.30;;;3.47;;
52586;SDS011;38480;52.724;6.436;2023-05-29T07:18:09;13.60;;;3.20;;
52586;SDS011;38480;52.724;6.436;2023-05-29T07:20:36;13.73;;;3.17;;
52586;SDS011;38480;52.724;6.436;2023-05-29T07:23:02;18.50;;;3.83;;
52586;SDS011;38480;52.724;6.436;2023-05-29T07:25:29;19.70;;;3.40;;
52586;SDS011;38480;52.724;6.436;2023-05-29T07:27:55;14.73;;;3.20;;
52586;SDS011;38480;52.724;6.436;2023-05-29T07:30:21;20.97;;;3.47;;
52586;SDS011;38480;52.724;6.436;2023-05-29T07:32:47;16.63;;;3.53;;
52586;SDS011;38480;52.724;6.436;2023-05-29T07:35:13;12.87;;;2.90;;
52586;SDS011;38480;52.724;6.436;2023-05-29T07:37:39;16.27;;;3.73;;
52586;SDS011;38480;52.724;6.436;2023-05-29T07:40:05;18.10;;;3.50;;
52586;SDS011;38480;52.724;6.436;2023-05-29T07:42:32;14.83;;;3.60;;
52586;SDS011;38480;52.724;6.436;2023-05-29T07:44:58;12.27;;;2.93;;
52586;SDS011;38480;52.724;6.436;2023-05-29T07:47:24;20.63;;;3.73;;
52586;SDS011;38480;52.724;6.436;2023-05-29T07:49:50;14.63;;;3.43;;
52586;SDS011;38480;52.724;6.436;2023-05-29T07:52:17;12.83;;;3.17;;
52586;SDS011;38480;52.724;6.436;2023-05-29T07:54:43;17.37;;;3.60;;
52586;SDS011;38480;52.724;6.436;2023-05-29T07:57:09;13.20;;;3.33;;
52586;SDS011;38480;52.724;6.436;2023-05-29T07:59:35;15.07;;;3.63;;
52586;SDS011;38480;52.724;6.436;2023-05-29T08:02:01;19.50;;;4.00;;
52586;SDS011;38480;52.724;6.436;2023-05-29T08:04:29;17.63;;;3.53;;
52586;SDS011;38480;52.724;6.436;2023-05-29T08:06:55;15.73;;;3.43;;
52586;SDS011;38480;52.724;6.436;2023-05-29T08:09:21;12.73;;;3.33;;
52586;SDS011;38480;52.724;6.436;2023-05-29T08:11:47;11.03;;;2.93;;
52586;SDS011;38480;52.724;6.436;2023-05-29T08:14:14;24.30;;;3.87;;
52586;SDS011;38480;52.724;6.436;2023-05-29T08:16:41;14.87;;;4.17;;
52586;SDS011;38480;52.724;6.436;2023-05-29T08:19:07;13.27;;;3.80;;
52586;SDS011;38480;52.724;6.436;2023-05-29T08:21:33;16.90;;;3.80;;
52586;SDS011;38480;52.724;6.436;2023-05-29T08:23:59;16.13;;;3.60;;
52586;SDS011;38480;52.724;6.436;2023-05-29T08:26:28;14.20;;;3.37;;
52586;SDS011;38480;52.724;6.436;2023-05-29T08:28:54;16.20;;;4.07;;
52586;SDS011;38480;52.724;6.436;2023-05-29T08:31:20;16.30;;;3.10;;
52586;SDS011;38480;52.724;6.436;2023-05-29T08:33:46;13.13;;;3.67;;
52586;SDS011;38480;52.724;6.436;2023-05-29T08:36:12;14.43;;;3.33;;
52586;SDS011;38480;52.724;6.436;2023-05-29T08:38:38;14.73;;;3.63;;
52586;SDS011;38480;52.724;6.436;2023-05-29T08:41:04;11.10;;;3.37;;
52586;SDS011;38480;52.724;6.436;2023-05-29T08:43:31;17.40;;;3.63;;
52586;SDS011;38480;52.724;6.436;2023-05-29T08:46:01;13.17;;;3.20;;
52586;SDS011;38480;52.724;6.436;2023-05-29T08:48:28;15.10;;;3.77;;
52586;SDS011;38480;52.724;6.436;2023-05-29T08:50:55;16.03;;;3.90;;
52586;SDS011;38480;52.724;6.436;2023-05-29T08:53:22;17.63;;;3.80;;
52586;SDS011;38480;52.724;6.436;2023-05-29T08:55:49;15.30;;;3.80;;
52586;SDS011;38480;52.724;6.436;2023-05-29T08:58:21;18.90;;;3.93;;
52586;SDS011;38480;52.724;6.436;2023-05-29T09:00:48;14.60;;;3.40;;
52586;SDS011;38480;52.724;6.436;2023-05-29T09:03:15;12.30;;;3.23;;
52586;SDS011;38480;52.724;6.436;2023-05-29T09:05:42;11.97;;;4.30;;
52586;SDS011;38480;52.724;6.436;2023-05-29T09:08:09;15.93;;;4.03;;
52586;SDS011;38480;52.724;6.436;2023-05-29T09:10:37;13.90;;;3.90;;
52586;SDS011;38480;52.724;6.436;2023-05-29T09:13:04;15.20;;;3.37;;
52586;SDS011;38480;52.724;6.436;2023-05-29T09:15:30;15.93;;;4.00;;
52586;SDS011;38480;52.724;6.436;2023-05-29T09:17:57;14.73;;;4.03;;
52586;SDS011;38480;52.724;6.436;2023-05-29T09:20:23;15.50;;;3.70;;
52586;SDS011;38480;52.724;6.436;2023-05-29T09:22:54;12.67;;;3.90;;
52586;SDS011;38480;52.724;6.436;2023-05-29T09:25:21;13.37;;;3.53;;
52586;SDS011;38480;52.724;6.436;2023-05-29T09:27:50;12.90;;;3.73;;
52586;SDS011;38480;52.724;6.436;2023-05-29T09:30:32;12.83;;;3.70;;
52586;SDS011;38480;52.724;6.436;2023-05-29T09:32:59;9.67;;;3.10;;
52586;SDS011;38480;52.724;6.436;2023-05-29T09:35:26;13.40;;;3.63;;
52586;SDS011;38480;52.724;6.436;2023-05-29T09:37:52;15.90;;;3.87;;
52586;SDS011;38480;52.724;6.436;2023-05-29T09:40:18;11.33;;;3.83;;
52586;SDS011;38480;52.724;6.436;2023-05-29T09:42:44;13.80;;;3.80;;
52586;SDS011;38480;52.724;6.436;2023-05-29T09:45:10;14.97;;;4.50;;
52586;SDS011;38480;52.724;6.436;2023-05-29T09:47:37;17.90;;;3.67;;
52586;SDS011;38480;52.724;6.436;2023-05-29T09:50:04;12.50;;;3.37;;
52586;SDS011;38480;52.724;6.436;2023-05-29T09:52:32;16.57;;;4.67;;
52586;SDS011;38480;52.724;6.436;2023-05-29T09:55:01;16.27;;;4.10;;
52586;SDS011;38480;52.724;6.436;2023-05-29T09:57:27;17.55;;;3.33;;
52586;SDS011;38480;52.724;6.436;2023-05-29T09:59:54;17.48;;;3.88;;
52586;SDS011;38480;52.724;6.436;2023-05-29T10:02:20;12.30;;;3.45;;
52586;SDS011;38480;52.724;6.436;2023-05-29T10:04:47;13.17;;;3.70;;
52586;SDS011;38480;52.724;6.436;2023-05-29T10:07:36;15.57;;;4.43;;
52586;SDS011;38480;52.724;6.436;2023-05-29T10:10:04;12.50;;;3.70;;
52586;SDS011;38480;52.724;6.436;2023-05-29T10:12:37;18.40;;;4.05;;
52586;SDS011;38480;52.724;6.436;2023-05-29T10:15:14;13.30;;;3.10;;
52586;SDS011;38480;52.724;6.436;2023-05-29T10:17:50;10.90;;;3.95;;
52586;SDS011;38480;52.724;6.436;2023-05-29T10:20:16;13.20;;;3.70;;
52586;SDS011;38480;52.724;6.436;2023-05-29T10:22:45;9.93;;;3.42;;
52586;SDS011;38480;52.724;6.436;2023-05-29T10:25:11;11.15;;;3.13;;
52586;SDS011;38480;52.724;6.436;2023-05-29T10:27:38;13.32;;;3.25;;
52586;SDS011;38480;52.724;6.436;2023-05-29T10:32:41;10.15;;;3.42;;
52586;SDS011;38480;52.724;6.436;2023-05-29T10:35:17;8.55;;;2.88;;
52586;SDS011;38480;52.724;6.436;2023-05-29T10:37:49;13.50;;;3.70;;
52586;SDS011;38480;52.724;6.436;2023-05-29T10:40:16;13.90;;;3.85;;
52586;SDS011;38480;52.724;6.436;2023-05-29T10:42:48;11.95;;;3.67;;
52586;SDS011;38480;52.724;6.436;2023-05-29T10:48:35;17.20;;;5.50;;
52586;SDS011;38480;52.724;6.436;2023-05-29T10:50:43;10.40;;;3.58;;
52586;SDS011;38480;52.724;6.436;2023-05-29T10:53:09;13.35;;;3.53;;
52586;SDS011;38480;52.724;6.436;2023-05-29T10:55:36;11.90;;;3.13;;
52586;SDS011;38480;52.724;6.436;2023-05-29T10:58:06;15.35;;;3.78;;
52586;SDS011;38480;52.724;6.436;2023-05-29T11:00:32;14.63;;;4.57;;
52586;SDS011;38480;52.724;6.436;2023-05-29T11:03:02;11.75;;;3.95;;
52586;SDS011;38480;52.724;6.436;2023-05-29T11:05:29;13.73;;;3.78;;
52586;SDS011;38480;52.724;6.436;2023-05-29T11:07:56;12.85;;;3.92;;
52586;SDS011;38480;52.724;6.436;2023-05-29T11:13:07;10.25;;;3.30;;
52586;SDS011;38480;52.724;6.436;2023-05-29T11:15:33;11.68;;;3.53;;
52586;SDS011;38480;52.724;6.436;2023-05-29T11:18:06;15.40;;;3.90;;
52586;SDS011;38480;52.724;6.436;2023-05-29T11:25:25;13.40;;;4.10;;
52586;SDS011;38480;52.724;6.436;2023-05-29T11:27:51;14.27;;;4.38;;
52586;SDS011;38480;52.724;6.436;2023-05-29T11:30:17;13.05;;;3.50;;
52586;SDS011;38480;52.724;6.436;2023-05-29T11:32:44;10.40;;;3.53;;
52586;SDS011;38480;52.724;6.436;2023-05-29T11:35:15;13.60;;;3.55;;
52586;SDS011;38480;52.724;6.436;2023-05-29T11:37:42;12.30;;;3.47;;
52586;SDS011;38480;52.724;6.436;2023-05-29T11:40:10;11.32;;;3.90;;
52586;SDS011;38480;52.724;6.436;2023-05-29T11:42:41;14.68;;;3.00;;
52586;SDS011;38480;52.724;6.436;2023-05-29T11:45:12;15.70;;;3.95;;
52586;SDS011;38480;52.724;6.436;2023-05-29T11:47:54;11.43;;;3.13;;
52586;SDS011;38480;52.724;6.436;2023-05-29T11:50:21;18.60;;;4.00;;
52586;SDS011;38480;52.724;6.436;2023-05-29T11:52:47;13.30;;;3.55;;
52586;SDS011;38480;52.724;6.436;2023-05-29T11:55:13;12.10;;;4.10;;
52586;SDS011;38480;52.724;6.436;2023-05-29T11:57:39;15.25;;;3.42;;
52586;SDS011;38480;52.724;6.436;2023-05-29T12:00:06;8.32;;;3.03;;
52586;SDS011;38480;52.724;6.436;2023-05-29T12:02:36;10.45;;;2.95;;
52586;SDS011;38480;52.724;6.436;2023-05-29T12:05:05;12.93;;;3.72;;
52586;SDS011;38480;52.724;6.436;2023-05-29T12:07:32;10.68;;;3.63;;
52586;SDS011;38480;52.724;6.436;2023-05-29T12:10:14;12.88;;;4.18;;
52586;SDS011;38480;52.724;6.436;2023-05-29T12:12:41;12.30;;;3.40;;
52586;SDS011;38480;52.724;6.436;2023-05-29T12:15:07;14.30;;;3.78;;
52586;SDS011;38480;52.724;6.436;2023-05-29T12:17:34;10.73;;;3.25;;
52586;SDS011;38480;52.724;6.436;2023-05-29T12:20:01;9.35;;;3.10;;
52586;SDS011;38480;52.724;6.436;2023-05-29T12:22:35;10.10;;;3.20;;
52586;SDS011;38480;52.724;6.436;2023-05-29T12:25:05;10.68;;;3.28;;
52586;SDS011;38480;52.724;6.436;2023-05-29T12:27:32;12.35;;;3.17;;
52586;SDS011;38480;52.724;6.436;2023-05-29T12:30:03;13.20;;;2.80;;
52586;SDS011;38480;52.724;6.436;2023-05-29T12:32:36;9.68;;;2.72;;
52586;SDS011;38480;52.724;6.436;2023-05-29T12:35:16;13.88;;;3.75;;
52586;SDS011;38480;52.724;6.436;2023-05-29T12:37:43;6.60;;;2.90;;
52586;SDS011;38480;52.724;6.436;2023-05-29T12:40:10;9.75;;;3.40;;
52586;SDS011;38480;52.724;6.436;2023-05-29T12:42:39;9.73;;;2.90;;
52586;SDS011;38480;52.724;6.436;2023-05-29T12:45:06;12.57;;;3.53;;
52586;SDS011;38480;52.724;6.436;2023-05-29T12:47:33;8.52;;;3.42;;
52586;SDS011;38480;52.724;6.436;2023-05-29T12:49:59;13.05;;;3.50;;
52586;SDS011;38480;52.724;6.436;2023-05-29T12:52:25;9.35;;;3.30;;
52586;SDS011;38480;52.724;6.436;2023-05-29T12:54:51;10.60;;;2.88;;
52586;SDS011;38480;52.724;6.436;2023-05-29T12:57:17;9.82;;;3.42;;
52586;SDS011;38480;52.724;6.436;2023-05-29T12:59:43;10.13;;;3.42;;
52586;SDS011;38480;52.724;6.436;2023-05-29T13:02:09;11.05;;;3.15;;
52586;SDS011;38480;52.724;6.436;2023-05-29T13:04:35;13.25;;;3.47;;
52586;SDS011;38480;52.724;6.436;2023-05-29T13:07:01;12.65;;;3.25;;
52586;SDS011;38480;52.724;6.436;2023-05-29T13:09:27;10.93;;;3.88;;
52586;SDS011;38480;52.724;6.436;2023-05-29T13:11:53;12.75;;;2.97;;
52586;SDS011;38480;52.724;6.436;2023-05-29T13:14:19;7.82;;;3.03;;
52586;SDS011;38480;52.724;6.436;2023-05-29T13:16:45;9.15;;;3.67;;
52586;SDS011;38480;52.724;6.436;2023-05-29T13:19:11;12.07;;;3.65;;
52586;SDS011;38480;52.724;6.436;2023-05-29T13:21:37;14.15;;;3.78;;
52586;SDS011;38480;52.724;6.436;2023-05-29T13:24:05;11.50;;;3.53;;
52586;SDS011;38480;52.724;6.436;2023-05-29T13:26:31;11.35;;;3.25;;
52586;SDS011;38480;52.724;6.436;2023-05-29T13:28:57;11.05;;;3.03;;
52586;SDS011;38480;52.724;6.436;2023-05-29T13:31:23;14.98;;;4.07;;
52586;SDS011;38480;52.724;6.436;2023-05-29T13:33:49;11.43;;;3.10;;
52586;SDS011;38480;52.724;6.436;2023-05-29T13:36:15;14.15;;;3.60;;
52586;SDS011;38480;52.724;6.436;2023-05-29T13:38:41;10.75;;;3.38;;
52586;SDS011;38480;52.724;6.436;2023-05-29T13:41:09;10.30;;;3.00;;
52586;SDS011;38480;52.724;6.436;2023-05-29T13:43:35;14.77;;;4.05;;
52586;SDS011;38480;52.724;6.436;2023-05-29T13:46:01;11.18;;;3.65;;
52586;SDS011;38480;52.724;6.436;2023-05-29T13:48:27;11.75;;;3.28;;
52586;SDS011;38480;52.724;6.436;2023-05-29T13:50:53;10.05;;;3.10;;
52586;SDS011;38480;52.724;6.436;2023-05-29T13:53:19;9.18;;;3.00;;
52586;SDS011;38480;52.724;6.436;2023-05-29T13:55:45;10.65;;;2.92;;
52586;SDS011;38480;52.724;6.436;2023-05-29T13:58:11;10.65;;;2.88;;
52586;SDS011;38480;52.724;6.436;2023-05-29T14:00:37;14.27;;;3.35;;
52586;SDS011;38480;52.724;6.436;2023-05-29T14:03:03;8.00;;;3.05;;
52586;SDS011;38480;52.724;6.436;2023-05-29T14:05:29;9.23;;;2.78;;
52586;SDS011;38480;52.724;6.436;2023-05-29T14:07:55;11.55;;;3.17;;
52586;SDS011;38480;52.724;6.436;2023-05-29T14:10:21;9.05;;;3.20;;
52586;SDS011;38480;52.724;6.436;2023-05-29T14:12:47;9.07;;;3.40;;
52586;SDS011;38480;52.724;6.436;2023-05-29T14:15:14;9.85;;;3.08;;
52586;SDS011;38480;52.724;6.436;2023-05-29T14:17:40;12.45;;;2.97;;
52586;SDS011;38480;52.724;6.436;2023-05-29T14:20:06;6.72;;;2.70;;
52586;SDS011;38480;52.724;6.436;2023-05-29T14:22:33;10.45;;;2.22;;
52586;SDS011;38480;52.724;6.436;2023-05-29T14:25:00;8.20;;;2.75;;
52586;SDS011;38480;52.724;6.436;2023-05-29T14:27:29;7.72;;;2.65;;
52586;SDS011;38480;52.724;6.436;2023-05-29T14:29:55;8.70;;;3.03;;
52586;SDS011;38480;52.724;6.436;2023-05-29T14:32:21;7.30;;;2.33;;
52586;SDS011;38480;52.724;6.436;2023-05-29T14:34:47;8.57;;;3.03;;
52586;SDS011;38480;52.724;6.436;2023-05-29T14:37:13;9.50;;;2.55;;
52586;SDS011;38480;52.724;6.436;2023-05-29T14:39:39;11.43;;;2.92;;
52586;SDS011;38480;52.724;6.436;2023-05-29T14:42:05;7.78;;;2.67;;
52586;SDS011;38480;52.724;6.436;2023-05-29T14:44:31;11.05;;;2.83;;
52586;SDS011;38480;52.724;6.436;2023-05-29T14:46:58;7.30;;;2.40;;
52586;SDS011;38480;52.724;6.436;2023-05-29T14:49:25;10.63;;;3.35;;
52586;SDS011;38480;52.724;6.436;2023-05-29T14:51:54;10.20;;;2.47;;
52586;SDS011;38480;52.724;6.436;2023-05-29T14:54:20;7.20;;;2.33;;